Time;durP1;ratioP1;P1;durP2;ratioP2;P2;SDS_P1;SDS_P2;PMS_P1;PMS_P2;Temp;Humidity;BMP_temperature;BMP_pressure;BME280_temperature;BME280_humidity;BME280_pressure;Samples;Min_cycle;Max_cycle;Signal;HPM_P1;HPM_P2
2023/05/18 00:01:03;;;;;;;13.23;3.25;;;;;;;;;;6139241;23;20075;-86
2023/05/18 00:03:32;;;;;;;12.38;3.58;;;;;;;;;;6139038;23;20496;-87
2023/05/18 00:06:03;;;;;;;15.52;3.28;;;;;;;;;;6162724;23;20048;-87
2023/05/18 00:08:32;;;;;;;13.77;3.25;;;;;;;;;;6163741;23;20021;-87
2023/05/18 00:10:58;;;;;;;10.25;3.60;;;;;;;;;;6162552;23;20013;-87
2023/05/18 00:13:24;;;;;;;14.57;3.42;;;;;;;;;;6137231;23;20121;-86
2023/05/18 00:15:50;;;;;;;10.05;3.00;;;;;;;;;;6137827;23;20069;-86
2023/05/18 00:18:17;;;;;;;12.00;3.40;;;;;;;;;;6162303;23;20013;-86
2023/05/18 00:20:43;;;;;;;9.50;3.25;;;;;;;;;;6190430;23;20040;-87
2023/05/18 00:23:15;;;;;;;11.48;3.35;;;;;;;;;;6162796;23;20025;-86
2023/05/18 00:25:41;;;;;;;12.13;3.33;;;;;;;;;;6138885;23;20098;-87
2023/05/18 00:28:07;;;;;;;12.82;3.40;;;;;;;;;;6189462;23;20040;-87
2023/05/18 00:30:34;;;;;;;10.20;3.17;;;;;;;;;;6162908;23;20017;-87
2023/05/18 00:33:00;;;;;;;8.43;3.03;;;;;;;;;;6189419;23;20013;-87
2023/05/18 00:35:26;;;;;;;9.95;3.15;;;;;;;;;;6161868;23;20271;-87
2023/05/18 00:37:52;;;;;;;11.23;3.53;;;;;;;;;;6189662;23;20020;-87
2023/05/18 00:40:18;;;;;;;12.45;3.03;;;;;;;;;;6163202;23;20017;-87
2023/05/18 00:42:44;;;;;;;10.77;3.30;;;;;;;;;;6162264;23;20087;-87
2023/05/18 00:45:11;;;;;;;11.35;3.15;;;;;;;;;;6161777;23;20017;-87
2023/05/18 00:47:37;;;;;;;10.13;3.13;;;;;;;;;;6163449;23;20017;-87
2023/05/18 00:50:03;;;;;;;10.05;3.25;;;;;;;;;;6138809;23;20035;-87
2023/05/18 00:52:31;;;;;;;8.88;3.08;;;;;;;;;;6188850;23;20024;-87
2023/05/18 00:54:58;;;;;;;14.65;3.63;;;;;;;;;;6164374;23;20025;-86
2023/05/18 00:57:24;;;;;;;9.20;2.85;;;;;;;;;;6188284;23;20028;-87
2023/05/18 00:59:51;;;;;;;9.82;3.70;;;;;;;;;;6163332;23;20407;-87
2023/05/18 01:02:17;;;;;;;8.52;3.13;;;;;;;;;;6163150;23;20017;-86
2023/05/18 01:04:43;;;;;;;11.10;3.30;;;;;;;;;;6137925;23;20096;-86
2023/05/18 01:07:09;;;;;;;11.45;3.80;;;;;;;;;;6162731;23;20455;-87
2023/05/18 01:09:36;;;;;;;11.23;2.78;;;;;;;;;;6189764;23;20039;-86
2023/05/18 01:12:21;;;;;;;15.43;3.10;;;;;;;;;;6162620;23;20063;-86
2023/05/18 01:15:00;;;;;;;11.68;3.25;;;;;;;;;;6188568;23;20063;-86
2023/05/18 01:17:32;;;;;;;10.70;3.42;;;;;;;;;;6162584;23;20021;-86
2023/05/18 01:20:19;;;;;;;11.93;3.33;;;;;;;;;;6161752;23;20025;-85
2023/05/18 01:22:50;;;;;;;8.85;2.95;;;;;;;;;;6162211;23;20013;-87
2023/05/18 01:25:45;;;;;;;12.73;3.35;;;;;;;;;;6189467;23;20015;-87
2023/05/18 01:28:15;;;;;;;11.45;3.65;;;;;;;;;;6162330;23;20066;-87
2023/05/18 01:30:42;;;;;;;13.63;3.08;;;;;;;;;;6189717;23;20017;-87
2023/05/18 01:33:11;;;;;;;10.82;3.45;;;;;;;;;;6137652;23;20036;-86
2023/05/18 01:35:40;;;;;;;10.63;3.50;;;;;;;;;;6163442;23;20067;-87
2023/05/18 01:38:06;;;;;;;10.65;3.00;;;;;;;;;;6162368;23;20085;-87
2023/05/18 01:40:47;;;;;;;7.63;2.97;;;;;;;;;;6162313;23;20017;-87
2023/05/18 01:43:16;;;;;;;9.07;3.35;;;;;;;;;;6162634;23;20017;-86
2023/05/18 01:45:45;;;;;;;9.40;3.50;;;;;;;;;;6138474;23;20021;-87
2023/05/18 01:48:13;;;;;;;9.55;3.22;;;;;;;;;;6162308;23;20060;-87
2023/05/18 01:50:41;;;;;;;8.95;3.22;;;;;;;;;;6162573;23;20096;-87
2023/05/18 01:53:23;;;;;;;10.48;3.00;;;;;;;;;;6162975;23;20028;-87
2023/05/18 01:55:50;;;;;;;9.38;3.17;;;;;;;;;;6138257;23;20391;-87
2023/05/18 01:58:16;;;;;;;6.68;2.90;;;;;;;;;;6189362;23;20016;-87
2023/05/18 02:00:42;;;;;;;11.70;3.53;;;;;;;;;;6189071;23;20017;-88
2023/05/18 02:03:08;;;;;;;13.65;3.20;;;;;;;;;;6162258;23;20028;-88
2023/05/18 02:05:34;;;;;;;12.80;3.08;;;;;;;;;;6188820;23;20021;-87
2023/05/18 02:08:01;;;;;;;10.98;3.28;;;;;;;;;;6162998;23;20024;-87
2023/05/18 02:10:27;;;;;;;8.52;2.70;;;;;;;;;;6187792;23;20017;-88
2023/05/18 02:12:53;;;;;;;9.35;3.67;;;;;;;;;;6188721;23;20047;-87
2023/05/18 02:15:19;;;;;;;11.13;3.10;;;;;;;;;;6162454;23;20013;-86
2023/05/18 02:17:46;;;;;;;10.30;3.22;;;;;;;;;;6162699;23;20087;-87
2023/05/18 02:20:12;;;;;;;12.63;3.92;;;;;;;;;;6161712;23;20095;-87
2023/05/18 02:22:38;;;;;;;10.50;3.78;;;;;;;;;;6161516;23;20009;-87
2023/05/18 02:25:06;;;;;;;12.05;3.67;;;;;;;;;;6163055;23;20061;-87
2023/05/18 02:27:33;;;;;;;10.95;3.30;;;;;;;;;;6162432;23;20028;-87
2023/05/18 02:29:59;;;;;;;11.80;3.70;;;;;;;;;;6188933;23;20009;-87
2023/05/18 02:32:26;;;;;;;11.88;3.45;;;;;;;;;;6188250;23;20052;-87
2023/05/18 02:34:52;;;;;;;9.57;2.85;;;;;;;;;;6162824;23;20043;-87
2023/05/18 02:37:18;;;;;;;13.35;3.47;;;;;;;;;;6160097;23;20051;-87
2023/05/18 02:39:45;;;;;;;12.80;3.38;;;;;;;;;;6188304;23;20013;-86
2023/05/18 02:42:11;;;;;;;12.05;4.03;;;;;;;;;;6161170;23;20017;-87
2023/05/18 02:44:37;;;;;;;9.60;3.33;;;;;;;;;;6136528;23;20316;-87
2023/05/18 02:47:03;;;;;;;10.32;3.35;;;;;;;;;;6161391;23;20024;-87
2023/05/18 02:49:29;;;;;;;11.90;3.10;;;;;;;;;;6160710;23;20348;-86
2023/05/18 02:51:55;;;;;;;8.27;2.85;;;;;;;;;;6160781;23;20599;-87
2023/05/18 02:54:21;;;;;;;13.65;3.38;;;;;;;;;;6160455;23;20009;-87
2023/05/18 02:56:47;;;;;;;9.35;3.30;;;;;;;;;;6188153;23;20009;-86
2023/05/18 02:59:14;;;;;;;12.75;3.78;;;;;;;;;;6136529;23;20020;-86
2023/05/18 03:01:40;;;;;;;8.68;2.95;;;;;;;;;;6161099;23;20093;-87
2023/05/18 03:04:06;;;;;;;9.93;3.08;;;;;;;;;;6187163;23;20017;-87
2023/05/18 03:06:32;;;;;;;8.13;2.80;;;;;;;;;;6136868;23;20044;-86
2023/05/18 03:08:58;;;;;;;10.15;3.03;;;;;;;;;;6160289;23;20419;-87
2023/05/18 03:11:25;;;;;;;9.57;3.38;;;;;;;;;;6187724;23;20036;-87
2023/05/18 03:13:51;;;;;;;9.63;3.65;;;;;;;;;;6137416;23;20013;-87
2023/05/18 03:16:17;;;;;;;14.90;3.58;;;;;;;;;;6161320;23;20088;-86
2023/05/18 03:18:43;;;;;;;9.95;2.85;;;;;;;;;;6136290;23;20059;-87
2023/05/18 03:21:12;;;;;;;11.13;2.95;;;;;;;;;;6188129;23;20032;-87
2023/05/18 03:23:38;;;;;;;12.80;3.75;;;;;;;;;;6162692;23;20019;-87
2023/05/18 03:26:09;;;;;;;8.95;3.00;;;;;;;;;;6187942;23;20045;-87
2023/05/18 03:28:35;;;;;;;9.68;3.40;;;;;;;;;;6161448;23;20013;-87
2023/05/18 03:31:01;;;;;;;10.15;3.22;;;;;;;;;;6137114;23;20024;-87
2023/05/18 03:33:27;;;;;;;9.38;3.13;;;;;;;;;;6161710;23;20020;-87
2023/05/18 03:35:53;;;;;;;12.45;3.15;;;;;;;;;;6136989;23;20401;-86
2023/05/18 03:38:19;;;;;;;12.80;3.70;;;;;;;;;;6186672;23;20109;-87
2023/05/18 03:40:45;;;;;;;9.68;3.50;;;;;;;;;;6160060;23;20044;-87
2023/05/18 03:43:11;;;;;;;8.95;3.10;;;;;;;;;;6137850;23;20032;-88
2023/05/18 03:45:37;;;;;;;9.80;3.28;;;;;;;;;;6161532;23;20436;-87
2023/05/18 03:48:03;;;;;;;8.27;2.55;;;;;;;;;;6159800;23;20071;-87
2023/05/18 03:50:29;;;;;;;12.10;3.10;;;;;;;;;;6160361;23;20420;-87
2023/05/18 03:52:55;;;;;;;12.45;4.00;;;;;;;;;;6186853;23;20039;-87
2023/05/18 03:55:22;;;;;;;11.15;3.10;;;;;;;;;;6160259;23;20444;-86
2023/05/18 03:57:48;;;;;;;8.38;2.83;;;;;;;;;;6135810;23;20024;-87
2023/05/18 04:00:14;;;;;;;12.45;3.10;;;;;;;;;;6160472;23;20017;-85
2023/05/18 04:02:41;;;;;;;8.13;2.78;;;;;;;;;;6161682;23;20013;-86
2023/05/18 04:05:07;;;;;;;14.57;3.47;;;;;;;;;;6136801;23;20455;-87
2023/05/18 04:07:33;;;;;;;10.27;3.60;;;;;;;;;;6136309;23;20383;-87
2023/05/18 04:09:59;;;;;;;9.77;3.33;;;;;;;;;;6162806;23;20025;-87
2023/05/18 04:12:25;;;;;;;8.57;3.42;;;;;;;;;;6136859;23;20017;-86
2023/05/18 04:14:52;;;;;;;11.93;3.80;;;;;;;;;;6136094;23;20098;-88
2023/05/18 04:17:21;;;;;;;11.80;3.40;;;;;;;;;;6185751;23;20052;-87
2023/05/18 04:19:48;;;;;;;10.98;3.40;;;;;;;;;;6156656;23;20032;-87
2023/05/18 04:22:15;;;;;;;8.50;3.17;;;;;;;;;;6132351;23;20013;-87
2023/05/18 04:24:41;;;;;;;9.65;2.83;;;;;;;;;;6157073;23;20425;-87
2023/05/18 04:27:07;;;;;;;10.73;2.92;;;;;;;;;;6133825;23;20344;-87
2023/05/18 04:29:38;;;;;;;11.82;3.47;;;;;;;;;;6133761;23;20083;-87
2023/05/18 04:32:06;;;;;;;8.48;2.90;;;;;;;;;;6133936;23;20024;-87
2023/05/18 04:34:34;;;;;;;10.80;2.85;;;;;;;;;;6158295;23;20020;-87
2023/05/18 04:37:01;;;;;;;12.10;3.13;;;;;;;;;;6158672;23;20086;-87
2023/05/18 04:39:28;;;;;;;10.52;3.42;;;;;;;;;;6184993;23;20017;-88
2023/05/18 04:41:57;;;;;;;10.65;3.40;;;;;;;;;;6134796;23;20048;-88
2023/05/18 04:44:30;;;;;;;8.25;2.83;;;;;;;;;;6192014;23;20048;-86
2023/05/18 04:46:56;;;;;;;9.73;2.90;;;;;;;;;;6144247;23;20017;-86
2023/05/18 04:49:22;;;;;;;10.85;2.95;;;;;;;;;;6168024;23;20028;-88
2023/05/18 04:51:54;;;;;;;14.40;3.20;;;;;;;;;;6168489;23;20028;-86
2023/05/18 04:54:20;;;;;;;9.60;3.00;;;;;;;;;;6166848;23;20028;-87
2023/05/18 04:56:46;;;;;;;6.45;2.67;;;;;;;;;;6166218;23;20036;-86
2023/05/18 04:59:12;;;;;;;10.50;3.20;;;;;;;;;;6167741;23;20009;-86
2023/05/18 05:01:38;;;;;;;10.40;3.83;;;;;;;;;;6168416;23;20072;-87
2023/05/18 05:04:05;;;;;;;11.35;2.97;;;;;;;;;;6188450;23;20028;-83
2023/05/18 05:06:31;;;;;;;10.52;2.78;;;;;;;;;;6159625;23;20017;-84
2023/05/18 05:08:57;;;;;;;9.88;2.97;;;;;;;;;;6185775;23;20013;-83
2023/05/18 05:11:23;;;;;;;16.83;3.15;;;;;;;;;;6158058;23;20013;-84
2023/05/18 05:13:49;;;;;;;10.13;2.85;;;;;;;;;;6157290;23;20067;-84
2023/05/18 05:16:15;;;;;;;8.40;2.78;;;;;;;;;;6132154;23;20060;-83
2023/05/18 05:18:41;;;;;;;11.68;3.30;;;;;;;;;;6156210;23;20028;-84
2023/05/18 05:21:08;;;;;;;10.15;2.97;;;;;;;;;;6183750;23;20013;-83
2023/05/18 05:23:34;;;;;;;9.68;2.65;;;;;;;;;;6157245;23;20017;-84
2023/05/18 05:26:00;;;;;;;9.25;2.63;;;;;;;;;;6157028;23;20016;-84
2023/05/18 05:28:26;;;;;;;8.40;3.08;;;;;;;;;;6156974;23;20337;-83
2023/05/18 05:30:52;;;;;;;11.40;2.97;;;;;;;;;;6183659;23;20017;-84
2023/05/18 05:33:18;;;;;;;14.45;3.10;;;;;;;;;;6156149;23;20017;-84
2023/05/18 05:35:44;;;;;;;11.18;3.38;;;;;;;;;;6156846;23;20013;-84
2023/05/18 05:38:10;;;;;;;10.38;3.15;;;;;;;;;;6156825;23;20080;-84
2023/05/18 05:40:36;;;;;;;7.95;2.90;;;;;;;;;;6156736;23;20396;-84
2023/05/18 05:43:05;;;;;;;13.07;3.30;;;;;;;;;;6157202;23;20021;-84
2023/05/18 05:45:31;;;;;;;10.10;2.70;;;;;;;;;;6156651;23;20442;-84
2023/05/18 05:47:57;;;;;;;12.93;3.58;;;;;;;;;;6155968;23;20103;-84
2023/05/18 05:50:23;;;;;;;11.13;3.20;;;;;;;;;;6156559;23;20024;-84
2023/05/18 05:52:49;;;;;;;8.73;2.85;;;;;;;;;;6156554;23;20025;-83
2023/05/18 05:55:15;;;;;;;10.23;2.67;;;;;;;;;;6156640;23;20017;-84
2023/05/18 05:57:41;;;;;;;9.35;3.25;;;;;;;;;;6183345;23;20551;-85
2023/05/18 06:00:11;;;;;;;9.98;2.85;;;;;;;;;;6156097;23;20013;-86
2023/05/18 06:02:37;;;;;;;8.68;2.47;;;;;;;;;;6184272;23;20024;-87
2023/05/18 06:05:04;;;;;;;10.65;2.80;;;;;;;;;;6156806;23;20008;-86
2023/05/18 06:07:30;;;;;;;9.32;2.88;;;;;;;;;;6183632;23;20347;-88
2023/05/18 06:09:56;;;;;;;8.07;2.55;;;;;;;;;;6157739;23;20013;-87
2023/05/18 06:12:22;;;;;;;12.73;3.42;;;;;;;;;;6156372;23;20020;-86
2023/05/18 06:14:51;;;;;;;13.88;2.92;;;;;;;;;;6181776;23;20401;-87
2023/05/18 06:17:17;;;;;;;9.50;3.22;;;;;;;;;;6131799;23;20067;-87
2023/05/18 06:19:43;;;;;;;12.10;3.28;;;;;;;;;;6156580;23;20017;-87
2023/05/18 06:22:09;;;;;;;9.57;2.83;;;;;;;;;;6130853;23;20420;-90
2023/05/18 06:24:35;;;;;;;11.68;3.50;;;;;;;;;;6131654;23;20013;-84
2023/05/18 06:27:01;;;;;;;10.00;2.83;;;;;;;;;;6158283;23;20336;-89
2023/05/18 06:29:27;;;;;;;7.13;2.78;;;;;;;;;;6157936;23;20017;-89
2023/05/18 06:31:54;;;;;;;8.00;2.50;;;;;;;;;;6133097;23;20021;-88
2023/05/18 06:34:20;;;;;;;11.40;3.00;;;;;;;;;;6184869;23;20017;-90
2023/05/18 06:36:46;;;;;;;8.27;2.72;;;;;;;;;;6133294;23;20044;-89
2023/05/18 06:39:12;;;;;;;8.50;2.88;;;;;;;;;;6133117;23;20013;-90
2023/05/18 06:41:38;;;;;;;8.15;2.67;;;;;;;;;;6157970;23;20597;-89
2023/05/18 06:44:04;;;;;;;11.82;2.70;;;;;;;;;;6132866;23;20017;-90
2023/05/18 06:46:30;;;;;;;9.57;2.55;;;;;;;;;;6133196;23;20013;-90
2023/05/18 06:48:56;;;;;;;7.50;2.78;;;;;;;;;;6184067;23;20028;-90
2023/05/18 06:51:22;;;;;;;11.02;3.17;;;;;;;;;;6158292;23;20014;-90
2023/05/18 06:53:49;;;;;;;7.20;2.45;;;;;;;;;;6158219;23;20017;-90
2023/05/18 06:56:15;;;;;;;9.88;2.70;;;;;;;;;;6157772;23;20013;-85
2023/05/18 06:58:42;;;;;;;11.45;2.30;;;;;;;;;;6156073;23;20332;-87
2023/05/18 07:01:08;;;;;;;9.68;2.17;;;;;;;;;;6156026;23;20020;-86
2023/05/18 07:03:34;;;;;;;8.43;2.80;;;;;;;;;;6184214;23;20009;-88
2023/05/18 07:06:00;;;;;;;11.07;3.08;;;;;;;;;;6183263;23;20025;-86
2023/05/18 07:08:26;;;;;;;13.68;3.00;;;;;;;;;;6182184;23;20471;-86
2023/05/18 07:10:53;;;;;;;12.63;2.50;;;;;;;;;;6156497;23;20371;-86
2023/05/18 07:13:19;;;;;;;7.50;2.40;;;;;;;;;;6182306;23;20048;-86
2023/05/18 07:15:46;;;;;;;8.73;2.67;;;;;;;;;;6155258;23;20013;-86
2023/05/18 07:18:11;;;;;;;9.82;2.53;;;;;;;;;;6156243;23;20045;-87
2023/05/18 07:20:38;;;;;;;10.93;2.63;;;;;;;;;;6131459;23;20024;-86
2023/05/18 07:23:04;;;;;;;11.30;2.88;;;;;;;;;;6131415;23;20013;-86
2023/05/18 07:25:30;;;;;;;10.50;3.00;;;;;;;;;;6156315;23;20424;-86
2023/05/18 07:27:56;;;;;;;7.35;2.50;;;;;;;;;;6156060;23;20013;-86
2023/05/18 07:30:22;;;;;;;11.40;2.85;;;;;;;;;;6131570;23;20016;-86
2023/05/18 07:32:50;;;;;;;8.15;2.30;;;;;;;;;;6182542;23;20021;-86
2023/05/18 07:35:18;;;;;;;6.93;2.53;;;;;;;;;;6156030;23;20089;-86
2023/05/18 07:37:44;;;;;;;6.65;2.42;;;;;;;;;;6156573;23;20310;-86
2023/05/18 07:40:11;;;;;;;7.85;2.50;;;;;;;;;;6131164;23;20013;-86
2023/05/18 07:42:38;;;;;;;8.30;2.42;;;;;;;;;;6131098;23;20078;-86
2023/05/18 07:45:04;;;;;;;8.35;2.25;;;;;;;;;;6155909;23;20029;-87
2023/05/18 07:47:30;;;;;;;9.35;2.53;;;;;;;;;;6155908;23;20017;-86
2023/05/18 07:49:56;;;;;;;10.38;2.85;;;;;;;;;;6181946;23;20017;-87
2023/05/18 07:52:22;;;;;;;6.53;2.40;;;;;;;;;;6130910;23;20013;-86
2023/05/18 07:54:48;;;;;;;8.10;2.20;;;;;;;;;;6155832;23;20017;-86
2023/05/18 07:57:14;;;;;;;12.98;2.70;;;;;;;;;;6155525;23;20017;-86
2023/05/18 07:59:40;;;;;;;10.02;2.38;;;;;;;;;;6182475;23;20017;-87
2023/05/18 08:02:06;;;;;;;7.75;2.50;;;;;;;;;;6132969;23;20023;-87
2023/05/18 08:04:32;;;;;;;7.63;2.25;;;;;;;;;;6133223;23;20088;-86
2023/05/18 08:06:59;;;;;;;8.32;2.63;;;;;;;;;;6158034;23;20048;-87
2023/05/18 08:09:28;;;;;;;7.90;1.92;;;;;;;;;;6157666;23;20063;-86
2023/05/18 08:11:55;;;;;;;9.13;2.40;;;;;;;;;;6157767;23;20024;-86
2023/05/18 08:14:21;;;;;;;7.78;2.55;;;;;;;;;;6184533;23;20013;-87
2023/05/18 08:16:47;;;;;;;6.70;2.38;;;;;;;;;;6132991;23;20095;-87
2023/05/18 08:19:15;;;;;;;7.80;2.67;;;;;;;;;;6157906;23;20468;-87
2023/05/18 08:21:41;;;;;;;7.80;2.30;;;;;;;;;;6157620;23;20463;-86
2023/05/18 08:24:07;;;;;;;7.72;2.42;;;;;;;;;;6133098;23;20127;-86
2023/05/18 08:26:33;;;;;;;8.35;2.50;;;;;;;;;;6183888;23;20048;-86
2023/05/18 08:28:59;;;;;;;6.72;2.13;;;;;;;;;;6157623;23;20017;-87
2023/05/18 08:31:25;;;;;;;9.23;2.35;;;;;;;;;;6132851;23;20032;-87
2023/05/18 08:33:51;;;;;;;20.88;11.93;;;;;;;;;;6157973;23;20072;-87
2023/05/18 08:36:17;;;;;;;12.20;2.42;;;;;;;;;;6133114;23;20072;-85
2023/05/18 08:38:43;;;;;;;9.07;2.67;;;;;;;;;;6132703;23;20350;-84
2023/05/18 08:41:28;;;;;;;9.18;2.40;;;;;;;;;;6132386;23;20056;-84
2023/05/18 08:44:03;;;;;;;7.95;2.40;;;;;;;;;;6132812;23;20444;-84
2023/05/18 08:46:33;;;;;;;8.23;2.50;;;;;;;;;;6157298;23;20093;-85
2023/05/18 08:49:01;;;;;;;8.27;2.47;;;;;;;;;;6184038;23;20013;-85
2023/05/18 08:51:28;;;;;;;8.23;1.98;;;;;;;;;;6132890;23;20024;-85
2023/05/18 08:53:54;;;;;;;7.70;2.00;;;;;;;;;;6157565;23;20024;-85
2023/05/18 08:56:25;;;;;;;6.22;2.22;;;;;;;;;;6156974;23;20028;-84
2023/05/18 08:58:51;;;;;;;7.10;2.22;;;;;;;;;;6184614;23;20384;-85
2023/05/18 09:01:17;;;;;;;10.75;2.60;;;;;;;;;;6157507;23;20016;-85
2023/05/18 09:03:44;;;;;;;7.35;2.40;;;;;;;;;;6157906;23;20083;-84
2023/05/18 09:06:10;;;;;;;6.30;2.10;;;;;;;;;;6158073;23;20039;-84
2023/05/18 09:08:37;;;;;;;8.45;3.38;;;;;;;;;;6132693;23;20009;-84
2023/05/18 09:11:03;;;;;;;12.45;2.30;;;;;;;;;;6157471;23;20021;-84
2023/05/18 09:13:29;;;;;;;11.40;2.42;;;;;;;;;;6157333;23;20017;-84
2023/05/18 09:15:55;;;;;;;8.10;2.40;;;;;;;;;;6157107;23;20013;-85
2023/05/18 09:18:21;;;;;;;8.15;2.45;;;;;;;;;;6157571;23;20059;-84
2023/05/18 09:20:47;;;;;;;11.75;2.08;;;;;;;;;;6157920;23;20017;-84
2023/05/18 09:23:16;;;;;;;6.35;1.85;;;;;;;;;;6156884;23;20023;-85
2023/05/18 09:25:48;;;;;;;7.15;2.30;;;;;;;;;;6157625;23;20013;-85
2023/05/18 09:28:25;;;;;;;9.70;2.50;;;;;;;;;;6157414;23;20024;-85
2023/05/18 09:30:52;;;;;;;9.02;2.63;;;;;;;;;;6157825;23;20016;-84
2023/05/18 09:33:22;;;;;;;6.90;2.20;;;;;;;;;;6157757;23;20088;-84
2023/05/18 09:35:51;;;;;;;5.65;2.20;;;;;;;;;;6157267;23;20055;-84
2023/05/18 09:38:20;;;;;;;15.55;2.65;;;;;;;;;;6156723;23;20017;-87
2023/05/18 09:40:50;;;;;;;10.13;2.38;;;;;;;;;;6162656;23;20120;-83
2023/05/18 09:43:17;;;;;;;8.95;2.17;;;;;;;;;;6139097;23;20059;-83
2023/05/18 09:45:45;;;;;;;10.50;2.20;;;;;;;;;;6161344;23;20013;-84
2023/05/18 09:48:11;;;;;;;5.03;1.80;;;;;;;;;;6162183;23;20098;-83
2023/05/18 09:50:37;;;;;;;8.07;2.15;;;;;;;;;;6138189;23;20012;-83
2023/05/18 09:53:07;;;;;;;6.38;2.22;;;;;;;;;;6188603;23;20013;-83
2023/05/18 09:55:37;;;;;;;8.63;2.50;;;;;;;;;;6161510;23;20097;-84
2023/05/18 09:58:03;;;;;;;9.45;2.22;;;;;;;;;;6163189;23;20080;-83
2023/05/18 10:00:31;;;;;;;5.65;2.30;;;;;;;;;;6163087;23;20029;-84
2023/05/18 10:02:58;;;;;;;10.30;2.53;;;;;;;;;;6188330;23;20024;-84
2023/05/18 10:05:32;;;;;;;7.03;2.38;;;;;;;;;;6188017;23;20048;-84
2023/05/18 10:07:59;;;;;;;5.70;2.28;;;;;;;;;;6186231;23;20021;-83
2023/05/18 10:10:26;;;;;;;6.43;2.28;;;;;;;;;;6161358;23;20017;-83
2023/05/18 10:12:59;;;;;;;7.45;2.40;;;;;;;;;;6161259;23;20076;-83
2023/05/18 10:15:25;;;;;;;7.03;1.90;;;;;;;;;;6161314;23;20440;-83
2023/05/18 10:17:54;;;;;;;5.65;2.20;;;;;;;;;;6161359;23;20067;-85
2023/05/18 10:20:23;;;;;;;8.80;2.20;;;;;;;;;;6137467;23;20021;-83
2023/05/18 10:22:49;;;;;;;5.47;2.22;;;;;;;;;;6161522;23;20108;-85
2023/05/18 10:25:20;;;;;;;8.13;3.00;;;;;;;;;;6161897;23;20036;-84
2023/05/18 10:27:48;;;;;;;8.10;2.00;;;;;;;;;;6188904;23;20021;-84
2023/05/18 10:30:14;;;;;;;8.20;2.47;;;;;;;;;;6161212;23;20017;-85
2023/05/18 10:32:41;;;;;;;9.20;2.58;;;;;;;;;;6160790;23;20016;-84
2023/05/18 10:35:08;;;;;;;7.10;2.47;;;;;;;;;;6189753;23;20009;-85
2023/05/18 10:37:35;;;;;;;7.32;2.42;;;;;;;;;;6160231;23;20041;-84
2023/05/18 10:40:02;;;;;;;7.18;2.05;;;;;;;;;;6186701;23;20041;-84
2023/05/18 10:42:29;;;;;;;6.70;2.40;;;;;;;;;;6159548;23;20425;-84
2023/05/18 10:44:56;;;;;;;7.97;2.20;;;;;;;;;;6161094;23;20032;-84
2023/05/18 10:47:26;;;;;;;9.07;2.30;;;;;;;;;;6136257;23;20027;-84
2023/05/18 10:49:53;;;;;;;9.05;2.58;;;;;;;;;;6161102;23;20056;-85
2023/05/18 10:52:19;;;;;;;9.90;2.42;;;;;;;;;;6161980;23;20028;-84
2023/05/18 10:54:45;;;;;;;7.75;2.30;;;;;;;;;;6188818;23;20013;-85
2023/05/18 10:57:14;;;;;;;6.97;2.10;;;;;;;;;;6136446;23;20009;-85
2023/05/18 10:59:41;;;;;;;11.38;2.58;;;;;;;;;;6160890;23;20015;-85
2023/05/18 11:02:08;;;;;;;7.88;2.10;;;;;;;;;;6160913;23;20017;-85
2023/05/18 11:04:34;;;;;;;8.85;2.40;;;;;;;;;;6160431;23;20091;-85
2023/05/18 11:07:01;;;;;;;6.90;2.05;;;;;;;;;;6158209;23;20013;-85
2023/05/18 11:09:28;;;;;;;5.50;2.22;;;;;;;;;;6156574;23;20456;-85
2023/05/18 11:11:56;;;;;;;10.27;3.03;;;;;;;;;;6156666;23;20066;-85
2023/05/18 11:14:26;;;;;;;8.77;2.30;;;;;;;;;;6156623;23;20009;-85
2023/05/18 11:16:52;;;;;;;7.53;2.08;;;;;;;;;;6182748;23;20016;-85
2023/05/18 11:19:19;;;;;;;8.65;2.47;;;;;;;;;;6155566;23;20447;-86
2023/05/18 11:21:45;;;;;;;8.40;2.83;;;;;;;;;;6156268;23;20401;-86
2023/05/18 11:24:20;;;;;;;7.55;2.60;;;;;;;;;;6131415;23;20076;-85
2023/05/18 11:27:06;;;;;;;7.72;2.30;;;;;;;;;;6182747;23;20013;-85
2023/05/18 11:29:40;;;;;;;9.95;2.83;;;;;;;;;;6155724;23;20077;-85
2023/05/18 11:32:21;;;;;;;10.27;2.35;;;;;;;;;;6131299;23;20017;-85
2023/05/18 11:34:50;;;;;;;6.60;2.30;;;;;;;;;;6182050;23;20098;-85
2023/05/18 11:37:17;;;;;;;7.20;2.38;;;;;;;;;;6155790;23;20091;-85
2023/05/18 11:39:54;;;;;;;8.45;2.50;;;;;;;;;;6155875;23;20016;-85
2023/05/18 11:42:20;;;;;;;6.05;2.40;;;;;;;;;;6182835;23;20269;-85
2023/05/18 11:44:54;;;;;;;10.35;2.63;;;;;;;;;;6155870;23;20016;-84
2023/05/18 11:47:20;;;;;;;6.15;2.47;;;;;;;;;;6131281;23;20384;-85
2023/05/18 11:49:47;;;;;;;5.85;2.17;;;;;;;;;;6182271;23;20017;-86
2023/05/18 11:52:16;;;;;;;8.48;2.55;;;;;;;;;;6182789;23;20021;-86
2023/05/18 11:54:43;;;;;;;10.63;2.95;;;;;;;;;;6155816;23;20013;-84
2023/05/18 11:57:10;;;;;;;7.32;2.50;;;;;;;;;;6182784;23;20009;-86
2023/05/18 11:59:41;;;;;;;7.18;2.55;;;;;;;;;;6155985;23;20385;-84
2023/05/18 12:02:11;;;;;;;9.45;2.70;;;;;;;;;;6155845;23;20013;-86
2023/05/18 12:04:49;;;;;;;9.60;2.80;;;;;;;;;;6130732;23;20017;-85
2023/05/18 12:07:17;;;;;;;8.85;2.28;;;;;;;;;;6131265;23;20017;-85
2023/05/18 12:09:44;;;;;;;7.57;2.40;;;;;;;;;;6156126;23;20112;-85
2023/05/18 12:12:11;;;;;;;9.45;2.30;;;;;;;;;;6131326;23;20092;-85
2023/05/18 12:14:38;;;;;;;7.20;2.53;;;;;;;;;;6155854;23;20396;-85
2023/05/18 12:17:04;;;;;;;8.65;2.70;;;;;;;;;;6181756;23;20392;-85
2023/05/18 12:19:36;;;;;;;9.38;2.75;;;;;;;;;;6182487;23;20009;-85
2023/05/18 12:22:03;;;;;;;9.90;2.33;;;;;;;;;;6182399;23;20024;-85
2023/05/18 12:24:29;;;;;;;11.00;2.80;;;;;;;;;;6130927;23;20094;-85
2023/05/18 12:26:56;;;;;;;8.77;2.70;;;;;;;;;;6155445;23;20518;-85
2023/05/18 12:29:22;;;;;;;6.85;2.40;;;;;;;;;;6131087;23;20020;-86
2023/05/18 12:31:48;;;;;;;8.68;3.08;;;;;;;;;;6130575;23;20032;-86
2023/05/18 12:34:14;;;;;;;7.63;2.58;;;;;;;;;;6155720;23;20009;-86
2023/05/18 12:36:53;;;;;;;8.63;2.80;;;;;;;;;;6131224;23;20013;-86
2023/05/18 12:39:20;;;;;;;8.50;2.75;;;;;;;;;;6155561;23;20095;-86
2023/05/18 12:41:46;;;;;;;13.02;2.72;;;;;;;;;;6155679;23;20449;-85
2023/05/18 12:44:12;;;;;;;7.43;2.67;;;;;;;;;;6155537;23;20020;-85
2023/05/18 12:46:38;;;;;;;9.27;2.60;;;;;;;;;;6155469;23;20024;-86
2023/05/18 12:49:05;;;;;;;6.75;2.80;;;;;;;;;;6132788;23;20013;-86
2023/05/18 12:51:31;;;;;;;10.95;2.97;;;;;;;;;;6157213;23;20418;-86
2023/05/18 12:53:58;;;;;;;8.25;2.55;;;;;;;;;;6157460;23;20021;-85
2023/05/18 12:56:24;;;;;;;6.75;2.58;;;;;;;;;;6157569;23;20008;-85
2023/05/18 12:58:57;;;;;;;7.18;2.53;;;;;;;;;;6157465;23;20019;-86
2023/05/18 13:01:23;;;;;;;7.85;2.83;;;;;;;;;;6132048;23;20028;-86
2023/05/18 13:03:55;;;;;;;6.80;2.70;;;;;;;;;;6157355;23;20091;-86
2023/05/18 13:06:21;;;;;;;7.28;2.53;;;;;;;;;;6157170;23;20013;-85
2023/05/18 13:08:47;;;;;;;9.73;2.40;;;;;;;;;;6157110;23;20044;-85
2023/05/18 13:11:16;;;;;;;6.38;2.50;;;;;;;;;;6157400;23;20122;-84
2023/05/18 13:13:57;;;;;;;8.55;2.80;;;;;;;;;;6157154;23;20013;-86
2023/05/18 13:16:28;;;;;;;9.07;2.67;;;;;;;;;;6156885;23;20021;-85
2023/05/18 13:18:55;;;;;;;10.93;3.08;;;;;;;;;;6183866;23;20021;-86
2023/05/18 13:21:21;;;;;;;6.55;2.70;;;;;;;;;;6157153;23;20024;-85
2023/05/18 13:23:47;;;;;;;12.82;3.15;;;;;;;;;;6183847;23;20013;-86
2023/05/18 13:26:13;;;;;;;10.80;2.53;;;;;;;;;;6132511;23;20016;-85
2023/05/18 13:28:40;;;;;;;8.88;2.92;;;;;;;;;;6132654;23;20336;-84
2023/05/18 13:31:06;;;;;;;6.57;2.40;;;;;;;;;;6156862;23;20017;-85
2023/05/18 13:33:32;;;;;;;10.07;2.20;;;;;;;;;;6156830;23;20013;-86
2023/05/18 13:35:58;;;;;;;7.90;2.70;;;;;;;;;;6156831;23;20132;-85
2023/05/18 13:38:24;;;;;;;9.82;2.90;;;;;;;;;;6183243;23;20088;-85
2023/05/18 13:40:50;;;;;;;8.57;2.53;;;;;;;;;;6157074;23;20017;-84
2023/05/18 13:43:16;;;;;;;8.52;2.63;;;;;;;;;;6183451;23;20079;-85
2023/05/18 13:45:42;;;;;;;8.70;2.67;;;;;;;;;;6132133;23;20016;-85
2023/05/18 13:48:08;;;;;;;7.57;2.45;;;;;;;;;;6156529;23;20352;-85
2023/05/18 13:50:34;;;;;;;10.95;2.83;;;;;;;;;;6132116;23;20074;-86
2023/05/18 13:53:01;;;;;;;9.60;3.03;;;;;;;;;;6182814;23;20443;-85
2023/05/18 13:55:27;;;;;;;10.05;2.60;;;;;;;;;;6156728;23;20013;-86
2023/05/18 13:57:53;;;;;;;8.80;2.63;;;;;;;;;;6183028;23;20522;-85
2023/05/18 14:00:19;;;;;;;13.40;2.88;;;;;;;;;;6155993;23;20015;-84
2023/05/18 14:02:46;;;;;;;8.85;3.03;;;;;;;;;;6183279;23;20017;-85
2023/05/18 14:05:13;;;;;;;10.13;2.97;;;;;;;;;;6156970;23;20035;-85
2023/05/18 14:07:39;;;;;;;10.93;2.75;;;;;;;;;;6131906;23;20024;-85
2023/05/18 14:10:06;;;;;;;9.05;2.80;;;;;;;;;;6131819;23;20139;-85
2023/05/18 14:12:32;;;;;;;8.82;2.67;;;;;;;;;;6156734;23;20082;-84
2023/05/18 14:14:59;;;;;;;10.45;2.63;;;;;;;;;;6131195;23;20096;-84
2023/05/18 14:17:26;;;;;;;10.02;2.72;;;;;;;;;;6156178;23;20402;-85
2023/05/18 14:19:52;;;;;;;12.18;2.80;;;;;;;;;;6183161;23;20013;-86
2023/05/18 14:22:20;;;;;;;9.57;2.80;;;;;;;;;;6182973;23;20271;-85
2023/05/18 14:24:46;;;;;;;11.20;2.65;;;;;;;;;;6156834;23;20333;-85
2023/05/18 14:27:12;;;;;;;7.80;2.55;;;;;;;;;;6156675;23;20009;-85
2023/05/18 14:29:38;;;;;;;10.02;2.60;;;;;;;;;;6182837;23;20472;-85
2023/05/18 14:32:04;;;;;;;10.23;3.03;;;;;;;;;;6182693;23;20017;-85
2023/05/18 14:34:30;;;;;;;9.60;2.85;;;;;;;;;;6156442;23;20448;-84
2023/05/18 14:36:56;;;;;;;9.85;2.58;;;;;;;;;;6131980;23;20009;-85
2023/05/18 14:39:22;;;;;;;8.50;2.83;;;;;;;;;;6131868;23;20092;-84